createdAt,value
2018-09-02T00:02:32.872Z,55.40
2018-09-02T00:06:06.453Z,55.50
2018-09-02T00:09:39.667Z,55.60
2018-09-02T00:13:12.876Z,55.80
2018-09-02T00:16:46.113Z,55.80
2018-09-02T00:20:19.404Z,55.80
2018-09-02T00:23:52.868Z,55.90
2018-09-02T00:27:26.232Z,56.10
2018-09-02T00:30:59.450Z,56.20
2018-09-02T00:34:32.675Z,56.40
2018-09-02T00:38:05.900Z,56.90
2018-09-02T00:41:39.975Z,56.60
2018-09-02T00:45:13.205Z,56.90
2018-09-02T00:48:46.427Z,57.20
2018-09-02T00:52:20.566Z,58.10
2018-09-02T00:55:53.861Z,57.70
2018-09-02T00:59:27.085Z,58.00
2018-09-02T01:03:00.309Z,58.20
2018-09-02T01:06:33.539Z,58.40
2018-09-02T01:10:06.752Z,58.50
2018-09-02T01:13:39.962Z,58.80
2018-09-02T01:17:13.388Z,59.00
2018-09-02T01:20:46.621Z,59.30
2018-09-02T01:24:19.853Z,59.60
2018-09-02T01:27:53.079Z,60.00
2018-09-02T01:31:26.311Z,60.40
2018-09-02T01:34:59.513Z,61.10
2018-09-02T01:38:32.720Z,61.50
2018-09-02T01:42:06.068Z,62.20
2018-09-02T01:45:39.278Z,62.70
2018-09-02T01:49:12.500Z,63.20
2018-09-02T01:52:45.700Z,63.50
2018-09-02T01:56:18.944Z,63.70
2018-09-02T01:59:52.160Z,64.00
2018-09-02T02:03:25.371Z,64.30
2018-09-02T02:06:58.600Z,64.50
2018-09-02T02:10:31.836Z,65.00
2018-09-02T02:14:05.039Z,65.00
2018-09-02T02:17:38.340Z,65.30
2018-09-02T02:21:11.548Z,65.50
2018-09-02T02:24:44.781Z,65.80
2018-09-02T02:28:18.004Z,66.00
2018-09-02T02:31:51.226Z,66.40
2018-09-02T02:35:24.453Z,66.80
2018-09-02T02:38:57.667Z,67.00
2018-09-02T02:42:30.887Z,67.50
2018-09-02T02:46:04.113Z,67.70
2018-09-02T02:49:37.328Z,67.70
2018-09-02T02:53:10.540Z,68.10
2018-09-02T02:56:43.755Z,68.00
2018-09-02T03:00:17.036Z,68.40
2018-09-02T03:03:50.235Z,68.40
2018-09-02T03:07:23.452Z,68.80
2018-09-02T03:10:56.653Z,68.90
2018-09-02T03:14:29.880Z,69.20
2018-09-02T03:18:03.092Z,69.40
2018-09-02T03:21:36.304Z,69.50
2018-09-02T03:25:09.544Z,69.80
2018-09-02T03:28:42.759Z,70.30
2018-09-02T03:32:15.966Z,70.70
2018-09-02T03:35:49.204Z,71.50
2018-09-02T03:39:22.407Z,71.50
2018-09-02T03:42:55.639Z,71.60
2018-09-02T03:46:28.867Z,72.10
2018-09-02T03:50:02.099Z,72.40
2018-09-02T03:53:35.307Z,72.60
2018-09-02T03:57:08.524Z,73.00
2018-09-02T04:00:41.734Z,73.00
2018-09-02T04:04:14.960Z,73.10
2018-09-02T04:07:48.164Z,73.10
2018-09-02T04:11:21.431Z,73.10
2018-09-02T04:14:54.621Z,73.30
2018-09-02T04:18:27.840Z,73.60
2018-09-02T04:22:01.065Z,73.70
2018-09-02T04:25:34.709Z,73.80
2018-09-02T04:29:07.956Z,73.80
2018-09-02T04:32:41.179Z,73.70
2018-09-02T04:36:14.392Z,74.00
2018-09-02T04:39:47.608Z,74.20
2018-09-02T04:43:20.824Z,74.50
2018-09-02T04:46:54.048Z,75.00
2018-09-02T04:50:27.277Z,76.70
2018-09-02T04:54:00.520Z,76.60
2018-09-02T04:57:33.956Z,77.20
2018-09-02T05:01:07.212Z,77.90
2018-09-02T05:04:40.434Z,78.30
2018-09-02T05:08:13.657Z,79.20
2018-09-02T05:11:46.875Z,80.00
2018-09-02T05:15:20.112Z,80.80
2018-09-02T05:18:53.353Z,81.10
2018-09-02T05:22:26.591Z,81.80
2018-09-02T05:25:59.815Z,82.40
2018-09-02T05:29:33.051Z,82.80
2018-09-02T05:33:06.279Z,83.40
2018-09-02T05:36:39.492Z,83.70
2018-09-02T05:40:12.716Z,84.00
2018-09-02T05:43:45.972Z,84.40
2018-09-02T05:47:19.186Z,84.90
2018-09-02T05:50:52.413Z,85.20
2018-09-02T05:54:25.644Z,85.50
2018-09-02T05:57:58.865Z,85.80
2018-09-02T06:01:32.125Z,86.10
2018-09-02T06:05:05.363Z,86.10
2018-09-02T06:08:38.590Z,86.20
2018-09-02T06:12:11.832Z,86.20
2018-09-02T06:15:45.064Z,86.40
2018-09-02T06:19:18.293Z,86.40
2018-09-02T06:22:51.510Z,86.50
2018-09-02T06:26:24.951Z,86.70
2018-09-02T06:29:58.227Z,86.70
2018-09-02T06:33:31.464Z,87.00
2018-09-02T06:37:04.691Z,87.40
2018-09-02T06:40:37.910Z,86.30
2018-09-02T06:44:11.353Z,86.20
2018-09-02T06:47:44.608Z,86.10
2018-09-02T06:51:17.825Z,86.20
2018-09-02T06:54:51.035Z,85.70
2018-09-02T06:58:24.324Z,85.90
2018-09-02T07:01:57.576Z,86.00
2018-09-02T07:05:33.481Z,86.00
2018-09-02T07:09:06.699Z,85.40
2018-09-02T07:12:39.940Z,84.70
2018-09-02T07:16:13.248Z,84.30
2018-09-02T07:19:46.473Z,84.70
2018-09-02T07:23:19.690Z,85.00
2018-09-02T07:26:52.913Z,84.90
2018-09-02T07:30:26.140Z,84.80
2018-09-02T07:33:59.404Z,84.80
2018-09-02T07:37:32.644Z,84.90
2018-09-02T07:41:05.858Z,84.80
2018-09-02T07:44:39.329Z,84.60
2018-09-02T07:48:12.548Z,84.40
2018-09-02T07:51:45.773Z,84.30
2018-09-02T07:55:18.995Z,84.60
2018-09-02T07:58:52.223Z,84.40
2018-09-02T08:02:25.446Z,84.40
2018-09-02T08:05:58.667Z,84.20
2018-09-02T08:09:31.909Z,84.10
2018-09-02T08:13:05.133Z,84.00
2018-09-02T08:16:38.348Z,83.60
2018-09-02T08:20:11.561Z,83.00
2018-09-02T08:23:45.136Z,83.30
2018-09-02T08:27:18.363Z,83.90
2018-09-02T08:30:51.570Z,84.10
2018-09-02T08:34:24.795Z,84.50
2018-09-02T08:37:58.035Z,84.60
2018-09-02T08:41:31.261Z,84.70
2018-09-02T08:45:04.824Z,84.50
2018-09-02T08:48:38.066Z,84.40
2018-09-02T08:52:11.315Z,84.20
2018-09-02T08:55:44.561Z,83.80
2018-09-02T08:59:17.780Z,84.80
2018-09-02T09:02:51.852Z,84.30
2018-09-02T09:06:25.663Z,84.30
2018-09-02T09:09:58.897Z,84.60
2018-09-02T09:13:32.153Z,85.00
2018-09-02T09:17:05.612Z,84.20
2018-09-02T09:20:38.846Z,83.90
2018-09-02T09:24:12.145Z,83.00
2018-09-02T09:27:45.299Z,82.40
2018-09-02T09:31:18.529Z,82.20
2018-09-02T09:34:51.772Z,82.10
2018-09-02T09:38:24.995Z,81.60
2018-09-02T09:41:58.235Z,81.10
2018-09-02T09:45:31.712Z,81.10
2018-09-02T09:49:05.160Z,81.00
2018-09-02T09:52:38.394Z,80.70
2018-09-02T09:56:11.609Z,80.50
2018-09-02T09:59:44.848Z,79.90
2018-09-02T10:03:18.579Z,79.70
2018-09-02T10:06:51.917Z,79.90
2018-09-02T10:10:25.158Z,79.80
2018-09-02T10:13:58.383Z,79.40
2018-09-02T10:17:31.634Z,79.10
2018-09-02T10:21:04.916Z,79.80
2018-09-02T10:24:38.144Z,79.80
2018-09-02T10:28:11.372Z,79.70
2018-09-02T10:31:44.598Z,79.70
2018-09-02T10:35:18.072Z,79.80
2018-09-02T10:38:51.305Z,79.70
2018-09-02T10:42:24.549Z,79.90
2018-09-02T10:45:57.769Z,80.10
2018-09-02T10:49:31.021Z,80.30
2018-09-02T10:53:04.447Z,80.40
2018-09-02T10:56:37.669Z,79.40
2018-09-02T11:00:11.291Z,79.10
2018-09-02T11:03:44.503Z,78.50
2018-09-02T11:07:17.736Z,78.30
2018-09-02T11:10:51.002Z,78.10
2018-09-02T11:14:24.253Z,77.70
2018-09-02T11:17:57.482Z,77.30
2018-09-02T11:21:30.717Z,76.60
2018-09-02T11:25:03.944Z,76.60
2018-09-02T11:28:37.184Z,76.40
2018-09-02T11:32:10.401Z,76.20
2018-09-02T11:35:43.632Z,76.00
2018-09-02T11:39:16.881Z,76.30
2018-09-02T11:42:50.102Z,76.50
2018-09-02T11:46:23.353Z,76.60
2018-09-02T11:49:56.555Z,76.80
2018-09-02T11:53:29.839Z,77.00
2018-09-02T11:57:03.048Z,77.00
2018-09-02T12:00:36.293Z,77.30
2018-09-02T12:04:09.514Z,77.30
2018-09-02T12:07:42.735Z,77.20
2018-09-02T12:11:15.959Z,77.60
2018-09-02T12:14:49.170Z,77.40
2018-09-02T12:18:22.395Z,77.30
2018-09-02T12:21:55.619Z,77.50
2018-09-02T12:25:28.843Z,77.60
2018-09-02T12:29:02.068Z,77.90
2018-09-02T12:32:35.311Z,78.00
2018-09-02T12:36:08.995Z,77.90
2018-09-02T12:39:42.239Z,77.90
2018-09-02T12:43:15.490Z,78.80
2018-09-02T12:46:48.719Z,77.80
2018-09-02T12:50:21.978Z,77.80
2018-09-02T12:53:55.187Z,77.90
2018-09-02T12:57:28.420Z,78.10
2018-09-02T13:01:01.647Z,78.40
2018-09-02T13:04:34.858Z,78.50
2018-09-02T13:08:08.076Z,78.30
2018-09-02T13:11:41.340Z,78.30
2018-09-02T13:15:14.642Z,78.00
2018-09-02T13:18:47.849Z,78.30
2018-09-02T13:22:21.041Z,78.10
2018-09-02T13:25:55.105Z,78.30
2018-09-02T13:29:28.719Z,78.40
2018-09-02T13:33:01.923Z,78.60
2018-09-02T13:36:35.157Z,78.80
2018-09-02T13:40:08.761Z,78.40
2018-09-02T13:43:41.947Z,78.40
2018-09-02T13:47:15.204Z,78.30
2018-09-02T13:50:48.429Z,78.20
2018-09-02T13:54:21.655Z,78.40
2018-09-02T13:57:54.884Z,78.40
2018-09-02T14:01:28.125Z,78.20
2018-09-02T14:05:01.339Z,78.30
2018-09-02T14:08:34.619Z,78.00
2018-09-02T14:12:07.964Z,78.00
2018-09-02T14:15:41.163Z,78.00
2018-09-02T14:19:14.443Z,78.00
2018-09-02T14:22:47.737Z,78.00
2018-09-02T14:26:20.980Z,78.00
2018-09-02T14:29:54.208Z,78.00
2018-09-02T14:33:27.432Z,77.90
2018-09-02T14:37:00.657Z,78.00
2018-09-02T14:40:33.879Z,77.90
2018-09-02T14:44:07.176Z,77.80
2018-09-02T14:47:40.417Z,78.30
2018-09-02T14:51:13.644Z,78.20
2018-09-02T14:54:46.886Z,77.20
2018-09-02T14:58:20.128Z,77.40
2018-09-02T15:01:53.362Z,77.90
2018-09-02T15:05:26.594Z,76.90
2018-09-02T15:08:59.815Z,76.70
2018-09-02T15:12:33.040Z,76.80
2018-09-02T15:16:06.310Z,76.80
2018-09-02T15:19:39.529Z,76.80
2018-09-02T15:23:12.749Z,76.90
2018-09-02T15:26:45.998Z,76.60
2018-09-02T15:30:19.241Z,76.60
2018-09-02T15:33:52.467Z,76.90
2018-09-02T15:37:25.698Z,76.80
2018-09-02T15:40:58.928Z,76.80
2018-09-02T15:44:32.145Z,77.20
2018-09-02T15:48:05.392Z,77.10
2018-09-02T15:51:38.656Z,77.00
2018-09-02T15:55:11.882Z,77.40
2018-09-02T15:58:45.108Z,77.40
2018-09-02T16:02:18.325Z,77.50
2018-09-02T16:05:51.554Z,77.30
2018-09-02T16:09:24.785Z,77.30
2018-09-02T16:12:57.998Z,77.10
2018-09-02T16:16:31.220Z,77.20
2018-09-02T16:20:04.487Z,77.30
2018-09-02T16:23:37.708Z,77.00
2018-09-02T16:27:10.932Z,77.00
2018-09-02T16:30:44.160Z,77.00
2018-09-02T16:34:17.396Z,77.10
2018-09-02T16:37:50.612Z,77.10
2018-09-02T16:41:23.843Z,77.10
2018-09-02T16:44:57.069Z,77.20
2018-09-02T16:48:30.301Z,77.20
2018-09-02T16:52:03.531Z,77.50
2018-09-02T16:55:36.732Z,77.50
2018-09-02T16:59:10.009Z,77.30
2018-09-02T17:02:43.236Z,77.00
2018-09-02T17:06:16.483Z,77.00
2018-09-02T17:09:49.690Z,77.10
2018-09-02T17:13:23.181Z,77.50
2018-09-02T17:16:56.472Z,77.70
2018-09-02T17:20:33.260Z,78.30
2018-09-02T17:24:06.653Z,78.60
2018-09-02T17:27:39.872Z,78.90
2018-09-02T17:31:13.113Z,79.60
2018-09-02T17:34:46.410Z,80.40
2018-09-02T17:38:19.702Z,80.90
2018-09-02T17:41:52.883Z,81.50
2018-09-02T17:45:26.135Z,82.10
2018-09-02T17:48:59.373Z,82.30
2018-09-02T17:52:32.652Z,82.50
2018-09-02T17:56:06.216Z,82.80
2018-09-02T17:59:39.545Z,83.10
2018-09-02T18:03:12.811Z,83.40
2018-09-02T18:06:46.044Z,83.60
2018-09-02T18:10:19.301Z,83.30
2018-09-02T18:13:52.515Z,83.40
2018-09-02T18:17:25.736Z,83.60
2018-09-02T18:20:59.007Z,84.10
2018-09-02T18:24:32.296Z,84.80
2018-09-02T18:28:07.632Z,85.30
2018-09-02T18:31:40.920Z,85.70
2018-09-02T18:35:14.158Z,86.40
2018-09-02T18:38:47.612Z,86.80
2018-09-02T18:42:20.892Z,86.90
2018-09-02T18:45:54.125Z,87.60
2018-09-02T18:49:27.364Z,87.10
2018-09-02T18:53:00.611Z,87.30
2018-09-02T18:56:33.872Z,87.50
2018-09-02T19:00:07.160Z,87.80
2018-09-02T19:03:40.832Z,87.60
2018-09-02T19:07:14.055Z,87.70
2018-09-02T19:10:47.547Z,87.60
2018-09-02T19:14:20.775Z,87.70
2018-09-02T19:17:54.006Z,88.00
2018-09-02T19:21:27.246Z,88.30
2018-09-02T19:25:00.495Z,88.50
2018-09-02T19:28:33.751Z,88.80
2018-09-02T19:32:06.975Z,89.00
2018-09-02T19:35:40.199Z,89.10
2018-09-02T19:39:13.520Z,89.30
2018-09-02T19:42:46.736Z,89.50
2018-09-02T19:46:19.995Z,89.60
2018-09-02T19:49:53.304Z,89.90
2018-09-02T19:53:26.540Z,89.80
2018-09-02T19:56:59.765Z,90.00
2018-09-02T20:00:33.333Z,90.20
2018-09-02T20:04:06.977Z,90.10
2018-09-02T20:07:40.217Z,90.10
2018-09-02T20:11:13.513Z,89.50
2018-09-02T20:14:46.743Z,89.50
2018-09-02T20:18:20.007Z,89.20
2018-09-02T20:21:53.247Z,89.60
2018-09-02T20:25:26.485Z,89.80
2018-09-02T20:28:59.714Z,90.00
2018-09-02T20:32:32.968Z,90.00
2018-09-02T20:36:06.088Z,90.00
2018-09-02T20:39:39.303Z,90.10
2018-09-02T20:43:12.528Z,90.20
2018-09-02T20:46:45.731Z,90.40
2018-09-02T20:50:18.998Z,90.60
2018-09-02T20:53:52.207Z,90.50
2018-09-02T20:57:25.436Z,90.50
2018-09-02T21:00:58.659Z,90.70
2018-09-02T21:04:31.873Z,91.00
2018-09-02T21:08:05.106Z,90.90
2018-09-02T21:11:38.389Z,90.80
2018-09-02T21:15:11.622Z,90.80
2018-09-02T21:18:44.855Z,90.60
2018-09-02T21:22:18.065Z,90.60
2018-09-02T21:25:51.289Z,90.40
2018-09-02T21:29:24.512Z,90.60
2018-09-02T21:32:57.740Z,90.70
2018-09-02T21:36:30.974Z,90.80
2018-09-02T21:40:04.200Z,90.70
2018-09-02T21:43:37.421Z,90.50
2018-09-02T21:47:10.638Z,90.70
2018-09-02T21:50:43.881Z,90.80
2018-09-02T21:54:17.087Z,90.50
2018-09-02T21:57:50.315Z,90.50
2018-09-02T22:01:23.583Z,90.40
2018-09-02T22:04:56.813Z,90.50
2018-09-02T22:08:30.021Z,90.70
2018-09-02T22:12:03.248Z,90.80
2018-09-02T22:15:36.460Z,90.70
2018-09-02T22:19:09.696Z,90.70
2018-09-02T22:22:42.919Z,90.50
2018-09-02T22:26:16.141Z,90.50
2018-09-02T22:29:49.373Z,90.50
2018-09-02T22:33:22.615Z,90.40
2018-09-02T22:36:55.825Z,90.30
2018-09-02T22:40:29.057Z,90.30
2018-09-02T22:44:02.276Z,90.30
2018-09-02T22:47:35.516Z,90.20
2018-09-02T22:51:08.722Z,90.30
2018-09-02T22:54:41.952Z,90.50
2018-09-02T22:58:15.186Z,90.60
2018-09-02T23:01:48.407Z,90.60
2018-09-02T23:05:21.636Z,90.80
2018-09-02T23:08:54.864Z,90.40
2018-09-02T23:12:28.156Z,90.40
2018-09-02T23:16:01.375Z,90.30
2018-09-02T23:19:34.663Z,90.30
2018-09-02T23:23:07.826Z,90.30
2018-09-02T23:26:41.048Z,90.20
2018-09-02T23:30:14.278Z,90.10
2018-09-02T23:33:47.515Z,90.00
2018-09-02T23:37:20.757Z,90.00
2018-09-02T23:40:53.970Z,90.10
2018-09-02T23:44:27.201Z,90.20
2018-09-02T23:48:00.416Z,90.20
2018-09-02T23:51:33.638Z,90.30
2018-09-02T23:55:06.888Z,90.20
2018-09-02T23:58:40.087Z,90.30
